Latest Coastal Weather Observations for Ulladulla

IDN60701

Issued at 2:41 am EDT Saturday 28 March 2015 (issued every 10 minutes, with the page automatically refreshed every 10 minutes)

About coastal observations | Map of coastal stations | Coastal observations for NSW | Marine services | Other Formats
Station Details ID: 069138 Name: ULLADULLA AWS Lat: -35.36 Lon: 150.48 Height: 35.7 m
Data from the previous 72 hours. | See also: Recent months at Ulladulla
Date/Time
EDT
Temp

°C
Wind Pressure Rain
since 9am
mm
Weather Cloud Vis
km
Sea
Height
m
Swell
Dir
 
Speed
knots
Gust
knots
hPa Trend Height
m
Period
s
Dir
28/02:30am 15.0 W 5 7 1020.4 - 0.0 - - - - - - -
28/02:00am 15.3 W 5 8 1020.3 - 0.0 - - - - - - -
28/01:30am 15.8 W 4 6 1020.3 - 0.0 - - - - - - -
28/01:00am 16.1 W 4 7 1020.2 - 0.0 - - - - - - -
28/12:30am 16.7 W 5 8 1020.2 - 0.0 - - - - - - -
28/12:00am 16.8 W 5 10 1020.1 - 0.0 - - - - - - -
 
Date/Time
EDT
Temp

°C
Wind Pressure Rain
since 9am
mm
Weather Cloud Vis
km
Sea
Height
m
Swell
Dir
 
Speed
knots
Gust
knots
hPa Trend Height
m
Period
s
Dir
27/11:30pm 16.6 W 5 8 1019.9 - 0.0 - - - - - - -
27/11:00pm 16.9 W 6 9 1019.7 - 0.0 - - - - - - -
27/10:30pm 16.6 W 5 8 1019.5 - 0.0 - - - - - - -
27/10:00pm 17.0 W 5 7 1019.3 - 0.0 - - - - - - -
27/09:30pm 17.5 WNW 4 7 1019.0 - 0.0 - - - - - - -
27/09:00pm 16.9 WNW 3 4 1018.6 - 0.0 - - - - - - -
27/08:30pm 17.5 WSW 5 7 1018.3 - 0.0 - - - - - - -
27/08:00pm 18.1 WSW 4 6 1017.9 - 0.0 - - - - - - -
27/07:30pm 18.7 WSW 4 6 1017.3 - 0.0 - - - - - - -
27/07:00pm 19.9 S 2 3 1016.8 - 0.0 - - - - - - -
27/06:30pm 21.2 SSE 3 4 1016.3 - 0.0 - - - - - - -
27/06:00pm 21.8 SE 3 4 1015.8 - 0.0 - - - - - - -
27/05:30pm 22.7 ESE 3 5 1015.6 - 0.0 - - - - - - -
27/05:00pm 23.0 SE 4 7 1015.2 - 0.0 - - - - - - -
27/04:30pm 23.2 SSE 7 12 1015.1 - 0.0 - - - - - - -
27/04:00pm 25.1 WSW 7 13 1015.2 - 0.0 - - - - - - -
27/03:30pm 24.3 NW 6 13 1015.4 - 0.0 - - - - - - -
27/03:00pm 24.3 WNW 6 11 1015.7 - 0.0 - - - - - - -
27/02:30pm 23.3 NW 8 15 1015.9 - 0.0 - - - - - - -
27/02:00pm 23.2 WNW 7 17 1016.5 - 0.0 - - - - - - -
27/01:30pm 22.2 NW 9 13 1016.8 - 0.0 - - - - - - -
27/01:00pm 21.9 WNW 8 14 1017.5 - 0.0 - - - - - - -
27/12:30pm 22.0 W 9 16 1018.1 - 0.0 - - - - - - -
27/12:00pm 21.3 W 7 13 1018.5 - 0.0 - - - - - - -
27/11:30am 20.6 WNW 7 15 1018.5 - 0.0 - - - - - - -
27/11:00am 20.1 W 7 12 1018.8 - 0.0 - - - - - - -
27/10:30am 19.3 WNW 8 14 1018.8 - 0.0 - - - - - - -
27/10:00am 18.1 WSW 8 15 1018.9 - 0.0 - - - - - - -
27/09:30am 17.7 WSW 7 14 1018.9 - 0.0 - - - - - - -
27/09:00am 17.1 W 7 14 1018.8 - 0.0 - - - - - - -
27/08:30am 16.1 W 5 11 1018.7 - 0.0 - - - - - - -
27/08:00am 15.4 WSW 4 9 1018.3 - 0.0 - - - - - - -
27/07:30am 14.1 WSW 5 11 1018.0 - 0.0 - - - - - - -
27/07:00am 13.7 WSW 5 9 1018.0 - 0.0 - - - - - - -
27/06:30am 12.8 SSW 2 5 1017.7 - 0.0 - - - - - - -
27/06:00am 13.3 W 2 4 1017.5 - 0.0 - - - - - - -
27/05:30am 13.9 SW 3 7 1017.4 - 0.0 - - - - - - -
27/05:00am 14.7 WNW 3 9 1017.4 - 0.0 - - - - - - -
27/04:30am 14.7 WNW 5 15 1017.5 - 0.0 - - - - - - -
27/04:00am 14.4 WSW 3 5 1017.9 - 0.0 - - - - - - -
27/03:30am 14.6 WSW 5 9 1018.1 - 0.0 - - - - - - -
27/03:00am 14.7 W 6 12 1018.3 - 0.0 - - - - - - -
27/02:30am 14.4 W 5 10 1018.5 - 0.0 - - - - - - -
27/02:00am 14.8 WNW 4 7 1018.8 - 0.0 - - - - - - -
27/01:30am 15.3 WNW 5 8 1018.7 - 0.0 - - - - - - -
27/01:00am 15.2 W 3 9 1019.2 - 0.0 - - - - - - -
27/12:30am 16.1 W 7 14 1019.2 - 0.0 - - - - - - -
27/12:00am 16.6 W 8 15 1019.1 - 0.0 - - - - - - -
 
Date/Time
EDT
Temp

°C
Wind Pressure Rain
since 9am
mm
Weather Cloud Vis
km
Sea
Height
m
Swell
Dir
 
Speed
knots
Gust
knots
hPa Trend Height
m
Period
s
Dir
26/11:30pm 16.7 W 9 18 1018.9 - 0.0 - - - - - - -
26/11:00pm 16.9 W 9 16 1018.7 - 0.0 - - - - - - -
26/10:30pm 17.0 W 9 15 1018.8 - 0.0 - - - - - - -
26/10:00pm 17.1 W 8 15 1018.8 - 0.0 - - - - - - -
26/09:30pm 16.9 W 6 10 1018.6 - 0.0 - - - - - - -
26/09:00pm 18.2 W 10 16 1018.2 - 0.0 - - - - - - -
26/08:30pm 18.6 W 8 15 1017.3 - 0.0 - - - - - - -
26/08:00pm 19.2 WNW 9 17 1016.7 - 0.0 - - - - - - -
26/07:30pm 19.5 WNW 10 21 1016.0 - 0.0 - - - - - - -
26/07:00pm 20.0 NW 10 17 1015.6 - 0.0 - - - - - - -
26/06:30pm 21.1 WNW 9 16 1015.6 - 0.0 - - - - - - -
26/06:00pm 22.0 WNW 12 23 1015.1 - 0.0 - - - - - - -
26/05:30pm 23.1 WNW 9 17 1014.7 - 0.0 - - - - - - -
26/05:00pm 23.6 WNW 13 23 1014.4 - 0.0 - - - - - - -
26/04:30pm 24.4 WNW 10 20 1014.0 - 0.0 - - - - - - -
26/04:00pm 23.3 WNW 7 13 1014.1 - 0.0 - - - - - - -
26/03:30pm 24.8 WNW 9 20 1014.2 - 0.0 - - - - - - -
26/03:00pm 24.2 NW 8 22 1014.3 - 0.0 - - - - - - -
26/02:30pm 23.3 NNW 5 8 1014.5 - 0.0 - - - - - - -
26/02:00pm 21.4 N 7 10 1014.8 - 0.0 - - - - - - -
26/01:30pm 21.8 NNW 5 8 1015.5 - 0.0 - - - - - - -
26/01:00pm 21.6 NNW 5 10 1016.0 - 0.0 - - - - - - -
26/12:30pm 21.8 WNW 5 9 1016.6 - 0.0 - - - - - - -
26/12:00pm 22.0 WNW 6 11 1016.8 - 0.0 - - - - - - -
26/11:30am 20.8 N 5 7 1016.6 - 0.0 - - - - - - -
26/11:00am 20.0 NW 7 12 1016.9 - 0.0 - - - - - - -
26/10:30am 19.9 N 7 10 1016.8 - 0.0 - - - - - - -
26/10:00am 19.4 N 7 11 1016.9 - 0.0 - - - - - - -
26/09:30am 19.2 N 6 11 1017.0 - 0.0 - - - - - - -
26/09:00am 18.6 NNW 8 12 1017.0 - 0.0 - - - - - - -
26/08:30am 17.5 NNW 7 11 1016.7 - 0.0 - - - - - - -
26/08:00am 17.2 NW 7 10 1016.6 - 0.0 - - - - - - -
26/07:30am 16.0 NW 6 8 1016.5 - 0.0 - - - - - - -
26/07:00am 16.2 NW 6 9 1016.2 - 0.0 - - - - - - -
26/06:30am 16.3 NW 6 8 1016.0 - 0.0 - - - - - - -
26/06:00am 16.6 NW 7 9 1015.8 - 0.0 - - - - - - -
26/05:30am 16.9 NNW 7 10 1015.6 - 0.0 - - - - - - -
26/05:00am 17.0 NNW 7 11 1015.5 - 0.0 - - - - - - -
26/04:30am 17.3 N 6 10 1015.5 - 0.0 - - - - - - -
26/04:00am 17.6 N 7 10 1015.6 - 0.0 - - - - - - -
26/03:30am 17.4 N 4 8 1015.9 - 0.0 - - - - - - -
26/03:00am 17.5 N 4 7 1016.0 - 0.0 - - - - - - -
26/02:30am 17.8 N 4 7 1016.2 - 0.0 - - - - - - -
26/02:00am 17.9 N 4 7 1016.6 - 0.0 - - - - - - -
26/01:30am 18.0 N 3 5 1016.9 - 0.0 - - - - - - -
26/01:00am 18.3 N 4 6 1017.0 - 0.0 - - - - - - -
26/12:30am 18.5 N 5 8 1016.8 - 0.0 - - - - - - -
26/12:00am 18.4 N 4 6 1017.1 - 0.0 - - - - - - -
 
Date/Time
EDT
Temp

°C
Wind Pressure Rain
since 9am
mm
Weather Cloud Vis
km
Sea
Height
m
Swell
Dir
 
Speed
knots
Gust
knots
hPa Trend Height
m
Period
s
Dir
25/11:30pm 18.3 N 4 6 1017.2 - 0.0 - - - - - - -
25/11:00pm 18.4 N 4 6 1017.5 - 0.0 - - - - - - -
25/10:30pm 18.5 NNW 4 6 1017.8 - 0.0 - - - - - - -
25/10:00pm 18.7 NNW 5 7 1018.0 - 0.0 - - - - - - -
25/09:30pm 19.1 N 3 5 1017.9 - 0.0 - - - - - - -
25/09:00pm 19.6 NE 6 9 1017.6 - 0.0 - - - - - - -
25/08:30pm 19.5 NE 5 9 1017.4 - 0.0 - - - - - - -
25/08:00pm 19.3 NE 4 7 1017.3 - 0.0 - - - - - - -
25/07:30pm 19.0 ENE 3 4 1017.1 - 0.0 - - - - - - -
25/07:00pm 18.9 ENE 4 7 1016.9 - 0.0 - - - - - - -
25/06:30pm 19.2 E 3 4 1017.0 - 0.0 - - - - - - -
25/06:00pm 19.5 SE 2 5 1016.8 - 0.0 - - - - - - -
25/05:30pm 19.9 SE 3 5 1016.5 - 0.0 - - - - - - -
25/05:00pm 20.2 SE 4 6 1016.5 - 0.0 - - - - - - -
25/04:30pm 20.6 SSE 4 7 1016.8 - 0.0 - - - - - - -
25/04:00pm 20.0 SSE 4 6 1017.0 - 0.0 - - - - - - -
25/03:30pm 20.7 S 7 10 1016.8 - 0.0 - - - - - - -
25/03:00pm 20.7 S 7 11 1017.3 - 0.0 - - - - - - -
25/02:30pm 20.9 S 8 12 1017.5 - 0.0 - - - - - - -
25/02:00pm 19.7 S 11 15 1017.7 - 0.0 - - - - - - -
25/01:30pm 20.3 S 13 16 1017.7 - 0.0 - - - - - - -
25/01:00pm 20.3 S 12 15 1017.8 - 0.0 - - - - - - -
25/12:30pm 20.6 S 9 13 1018.0 - 0.0 - - - - - - -
25/12:00pm 20.4 SSW 9 14 1017.8 - 0.0 - - - - - - -
25/11:30am 19.8 S 11 16 1017.4 - 0.0 - - - - - - -
25/11:00am 19.4 S 12 17 1017.5 - 0.0 - - - - - - -
25/10:30am 19.0 S 12 17 1017.9 - 0.0 - - - - - - -
25/10:00am 18.6 SSW 10 15 1018.1 - 0.0 - - - - - - -
25/09:30am 18.2 SSW 9 13 1017.9 - 0.0 - - - - - - -
25/09:00am 17.4 SW 8 13 1017.8 - 20.4 - - - - - - -
25/08:30am 16.9 SW 7 12 1017.5 - 20.4 - - - - - - -
25/08:00am 15.5 SW 7 11 1016.9 - 20.4 - - - - - - -
25/07:30am 15.1 SW 8 13 1016.3 - 20.4 - - - - - - -
25/07:00am 15.2 SW 8 15 1015.7 - 20.4 - - - - - - -
25/06:30am 15.4 SW 10 15 1015.4 - 20.4 - - - - - - -
25/06:00am 15.5 SW 11 19 1015.2 - 20.4 - - - - - - -
25/05:30am 15.5 SW 9 17 1015.2 - 20.4 - - - - - - -
25/05:00am 15.7 SW 9 14 1015.2 - 20.4 - - - - - - -
25/04:30am 15.7 SW 9 14 1014.7 - 20.4 - - - - - - -
25/04:00am 15.9 SW 9 15 1014.6 - 20.4 - - - - - - -
25/03:30am 16.3 SW 11 16 1014.5 - 20.4 - - - - - - -
25/03:00am 17.4 SSW 14 22 1014.2 - 20.4 - - - - - - -

Other Formats:

Comma delimited format used in spreadsheet applications
http://www.bom.gov.au/fwo/IDN60701/IDN60701.94938.axf

JavaScript Object Notation format (JSON) in row-major order
http://www.bom.gov.au/fwo/IDN60701/IDN60701.94938.json